Time;durP1;ratioP1;P1;durP2;ratioP2;P2;SDS_P1;SDS_P2;PMS_P1;PMS_P2;Temp;Humidity;BMP_temperature;BMP_pressure;BME280_temperature;BME280_humidity;BME280_pressure;Samples;Min_cycle;Max_cycle;Signal;HPM_P1;HPM_P2
2022/08/05 00:01:52;;;;;;;4.50;4.10;;;;;;;-141.28;100.00;46071.69;5073195;28;20228;-74
2022/08/05 00:04:20;;;;;;;6.47;4.10;;;;;;;-141.28;100.00;46059.94;5074339;28;20196;-75
2022/08/05 00:06:49;;;;;;;5.10;3.80;;;;;;;-141.28;100.00;46065.81;5073890;28;20196;-74
2022/08/05 00:09:17;;;;;;;4.53;4.10;;;;;;;-141.28;100.00;46050.13;5072583;28;20200;-75
2022/08/05 00:11:45;;;;;;;4.47;4.07;;;;;;;-141.28;100.00;46054.06;5084483;28;20671;-76
2022/08/05 00:14:13;;;;;;;4.67;3.93;;;;;;;-141.28;100.00;46056.00;5072435;28;20200;-74
2022/08/05 00:16:41;;;;;;;4.43;3.93;;;;;;;-141.28;100.00;46057.97;5072868;28;20200;-75
2022/08/05 00:19:08;;;;;;;5.10;3.60;;;;;;;-141.28;100.00;46061.91;5072308;28;20288;-76
2022/08/05 00:21:35;;;;;;;4.43;4.03;;;;;;;-141.28;100.00;46063.84;5081600;28;20294;-76
2022/08/05 00:24:03;;;;;;;6.13;4.00;;;;;;;-141.28;100.00;46065.81;5079083;28;20211;-76
2022/08/05 00:26:29;;;;;;;4.87;3.70;;;;;;;-141.28;100.00;46067.78;5083020;28;20235;-76
2022/08/05 00:28:57;;;;;;;4.30;3.67;;;;;;;-141.28;100.00;46075.63;5075822;28;20207;-75
2022/08/05 00:31:27;;;;;;;5.07;4.17;;;;;;;-141.28;100.00;46077.56;5082491;28;20279;-74
2022/08/05 00:33:56;;;;;;;4.60;4.10;;;;;;;-141.28;100.00;46087.38;5071700;28;20231;-73
2022/08/05 00:36:24;;;;;;;4.97;3.80;;;;;;;-141.28;100.00;46085.41;5083377;28;20200;-74
2022/08/05 00:38:51;;;;;;;5.27;4.47;;;;;;;-141.28;100.00;46108.94;5077797;28;20187;-77
2022/08/05 00:41:27;;;;;;;4.90;3.73;;;;;;;-141.28;100.00;46105.03;5093613;28;20196;-75
2022/08/05 00:43:55;;;;;;;4.17;3.53;;;;;;;-141.28;100.00;46118.75;5092537;28;20187;-75
2022/08/05 00:46:22;;;;;;;5.47;3.67;;;;;;;-141.28;100.00;46128.53;5091227;28;20196;-76
2022/08/05 00:48:51;;;;;;;4.17;3.77;;;;;;;-141.28;100.00;46132.47;5078480;28;20191;-74
2022/08/05 00:51:20;;;;;;;4.57;3.60;;;;;;;-141.28;100.00;46140.31;5087037;28;20651;-76
2022/08/05 00:53:48;;;;;;;4.47;4.07;;;;;;;-141.28;100.00;46130.50;5074706;28;20204;-76
2022/08/05 00:56:16;;;;;;;4.60;4.10;;;;;;;-141.28;100.00;46136.38;5092098;28;20199;-75
2022/08/05 00:58:44;;;;;;;4.77;4.30;;;;;;;-141.28;100.00;46144.22;5074655;28;20257;-75
2022/08/05 01:01:12;;;;;;;4.53;4.07;;;;;;;-141.28;100.00;46156.00;5082461;28;20199;-75
2022/08/05 01:03:40;;;;;;;5.20;4.20;;;;;;;-141.28;100.00;46163.84;5074491;28;20311;-76
2022/08/05 01:06:10;;;;;;;6.17;3.70;;;;;;;-141.28;100.00;46163.84;5071786;28;20200;-75
2022/08/05 01:08:37;;;;;;;5.27;3.80;;;;;;;-141.28;100.00;46165.78;5072080;28;20196;-75
2022/08/05 01:11:11;;;;;;;6.87;4.37;;;;;;;-141.28;100.00;46156.00;5071865;28;20288;-74
2022/08/05 01:13:47;;;;;;;5.50;5.00;;;;;;;-141.28;100.00;46159.91;5072278;28;20204;-75
2022/08/05 01:16:20;;;;;;;10.37;5.77;;;;;;;-141.28;100.00;46206.97;5072044;28;20204;-75
2022/08/05 01:18:53;;;;;;;12.57;5.67;;;;;;;-141.28;100.00;46156.00;5071935;28;20204;-76
2022/08/05 01:21:58;;;;;;;7.90;4.97;;;;;;;-141.28;100.00;46136.38;5071923;28;20673;-75
2022/08/05 01:24:48;;;;;;;7.67;5.63;;;;;;;-141.28;100.00;46108.94;5072551;28;20196;-74
2022/08/05 01:27:33;;;;;;;10.27;6.50;;;;;;;-141.28;100.00;46093.25;5071950;28;20204;-76
2022/08/05 01:30:05;;;;;;;5.63;5.00;;;;;;;-141.28;100.00;46081.50;5071507;28;20272;-75
2022/08/05 01:32:37;;;;;;;10.03;6.13;;;;;;;-141.28;100.00;46081.50;5071698;28;20200;-74
2022/08/05 01:35:08;;;;;;;13.50;5.77;;;;;;;-141.28;100.00;46081.50;5071954;28;20706;-75
2022/08/05 01:37:44;;;;;;;7.63;5.23;;;;;;;-141.28;100.00;46108.94;5070909;28;20200;-75
2022/08/05 01:40:12;;;;;;;9.93;5.80;;;;;;;-141.28;100.00;46105.03;5072857;28;20196;-77
2022/08/05 01:42:42;;;;;;;7.23;5.83;;;;;;;-141.28;100.00;46112.88;5071003;28;20219;-76
2022/08/05 01:45:13;;;;;;;6.57;5.57;;;;;;;-141.28;100.00;46097.19;5071737;28;20204;-75
2022/08/05 01:47:43;;;;;;;7.43;5.90;;;;;;;-141.28;100.00;46085.41;5071519;28;20693;-76
2022/08/05 01:50:17;;;;;;;6.47;5.80;;;;;;;-141.28;100.00;46085.41;5071781;28;20192;-77
2022/08/05 01:52:46;;;;;;;12.03;5.20;;;;;;;-141.28;100.00;46089.34;5070687;28;20204;-76
2022/08/05 01:55:17;;;;;;;6.20;5.10;;;;;;;-141.28;100.00;46091.31;5078371;28;20199;-77
2022/08/05 01:57:47;;;;;;;10.60;5.70;;;;;;;-141.28;100.00;46101.09;5076405;28;20328;-76
2022/08/05 02:00:21;;;;;;;10.03;5.73;;;;;;;-141.28;100.00;46101.09;5079531;28;20204;-76
2022/08/05 02:02:54;;;;;;;8.87;5.70;;;;;;;-141.28;100.00;46108.94;5090823;28;20622;-75
2022/08/05 02:05:25;;;;;;;6.93;5.37;;;;;;;-141.28;100.00;46101.09;5087555;28;20648;-75
2022/08/05 02:07:52;;;;;;;6.77;5.50;;;;;;;-141.28;100.00;46103.06;5070826;28;20646;-75
2022/08/05 02:10:20;;;;;;;12.67;5.83;;;;;;;-141.28;100.00;46097.19;5071153;28;20196;-75
2022/08/05 02:12:55;;;;;;;6.37;5.70;;;;;;;-141.28;100.00;46105.03;5070984;28;20208;-75
2022/08/05 02:15:27;;;;;;;14.60;5.60;;;;;;;-141.28;100.00;46112.88;5071119;28;20191;-75
2022/08/05 02:18:02;;;;;;;11.37;6.73;;;;;;;-141.28;100.00;46124.63;5070996;28;20245;-75
2022/08/05 02:20:36;;;;;;;12.67;6.00;;;;;;;-141.28;100.00;46124.63;5070750;28;20725;-75
2022/08/05 02:23:09;;;;;;;11.33;5.80;;;;;;;-141.28;100.00;46124.63;5070847;28;20224;-76
2022/08/05 02:25:37;;;;;;;6.97;5.30;;;;;;;-141.28;100.00;46116.78;5071274;28;20635;-75
2022/08/05 02:28:08;;;;;;;7.87;5.03;;;;;;;-141.28;100.00;46116.78;5071696;28;20195;-75
2022/08/05 02:30:44;;;;;;;5.97;4.87;;;;;;;-141.28;100.00;46163.84;5071114;28;20197;-74
2022/08/05 02:33:15;;;;;;;16.80;6.03;;;;;;;-141.28;100.00;46203.03;5071665;28;20662;-76
2022/08/05 02:35:44;;;;;;;6.00;4.90;;;;;;;-141.28;100.00;46210.88;5071137;28;20207;-74
2022/08/05 02:38:13;;;;;;;8.73;5.07;;;;;;;-141.28;100.00;46226.56;5074744;28;20201;-74
2022/08/05 02:40:43;;;;;;;5.60;4.90;;;;;;;-141.28;100.00;46246.16;5080329;28;20599;-74
2022/08/05 02:43:11;;;;;;;5.73;4.73;;;;;;;-141.28;100.00;46250.09;5069756;28;20211;-76
2022/08/05 02:45:43;;;;;;;8.80;4.83;;;;;;;-141.28;100.00;46261.84;5070728;28;20192;-75
2022/08/05 02:48:12;;;;;;;8.47;4.40;;;;;;;-141.28;100.00;46285.38;5070348;28;20207;-75
2022/08/05 02:50:41;;;;;;;5.97;4.63;;;;;;;-141.28;100.00;46297.13;5069503;28;20586;-74
2022/08/05 02:53:09;;;;;;;4.87;4.43;;;;;;;-141.28;100.00;46308.91;5071425;28;20200;-76
2022/08/05 02:55:36;;;;;;;5.93;4.50;;;;;;;-141.28;100.00;46316.75;5071578;28;20220;-75
2022/08/05 02:58:04;;;;;;;5.80;4.80;;;;;;;-141.28;100.00;46336.34;5071225;28;20193;-74
2022/08/05 03:00:32;;;;;;;5.00;4.60;;;;;;;-141.28;100.00;46326.53;5070896;28;20287;-76
2022/08/05 03:03:02;;;;;;;4.90;4.40;;;;;;;-141.28;100.00;46340.28;5072420;28;20607;-75
2022/08/05 03:05:29;;;;;;;6.40;4.77;;;;;;;-141.28;100.00;46324.59;5074883;28;20207;-76
2022/08/05 03:07:56;;;;;;;11.10;4.57;;;;;;;-141.28;100.00;46324.59;5076675;28;20203;-75
2022/08/05 03:10:24;;;;;;;5.13;4.63;;;;;;;-141.28;100.00;46320.66;5093780;28;20568;-76
2022/08/05 03:12:51;;;;;;;6.27;4.60;;;;;;;-141.28;100.00;46332.44;5076766;28;20678;-79
2022/08/05 03:15:18;;;;;;;4.63;4.10;;;;;;;-141.28;100.00;46330.47;5073894;28;20200;-75
2022/08/05 03:17:46;;;;;;;6.27;4.67;;;;;;;-141.28;100.00;46330.47;5091225;28;20196;-75
2022/08/05 03:20:14;;;;;;;7.03;4.57;;;;;;;-141.28;100.00;46340.28;5094129;28;20191;-77
2022/08/05 03:22:41;;;;;;;5.30;4.30;;;;;;;-141.28;100.00;46346.16;5093158;28;20234;-73
2022/08/05 03:25:13;;;;;;;6.97;4.10;;;;;;;-141.28;100.00;46352.03;5092171;28;20219;-75
2022/08/05 03:27:40;;;;;;;4.80;4.20;;;;;;;-141.28;100.00;46350.06;5086083;28;20724;-75
2022/08/05 03:30:10;;;;;;;5.60;4.70;;;;;;;-141.28;100.00;46352.03;5078140;28;20203;-74
2022/08/05 03:32:39;;;;;;;5.03;4.53;;;;;;;-141.28;100.00;46338.31;5093740;28;20203;-75
2022/08/05 03:35:07;;;;;;;13.23;5.50;;;;;;;-141.28;100.00;46340.28;5078723;28;20223;-75
2022/08/05 03:37:37;;;;;;;7.10;4.67;;;;;;;-141.28;100.00;46322.63;5076719;28;20545;-74
2022/08/05 03:40:07;;;;;;;6.13;4.47;;;;;;;-141.28;100.00;46318.69;5077521;28;20638;-75
2022/08/05 03:42:34;;;;;;;10.10;5.37;;;;;;;-141.28;100.00;46312.81;5073007;28;20231;-75
2022/08/05 03:45:01;;;;;;;6.47;4.90;;;;;;;-141.28;100.00;46301.06;5076780;28;20203;-75
2022/08/05 03:47:28;;;;;;;5.07;4.47;;;;;;;-141.28;100.00;46306.94;5093655;28;20196;-75
2022/08/05 03:49:56;;;;;;;11.43;5.27;;;;;;;-141.28;100.00;46308.91;5089146;28;20203;-75
2022/08/05 03:52:28;;;;;;;8.67;4.93;;;;;;;-141.28;100.00;46306.94;5073254;28;20734;-76
2022/08/05 03:55:02;;;;;;;15.80;5.70;;;;;;;-141.28;100.00;46269.69;5073229;28;20192;-75
2022/08/05 03:57:32;;;;;;;25.90;7.60;;;;;;;-141.28;100.00;46265.78;5072220;28;20204;-75
2022/08/05 04:00:06;;;;;;;18.67;6.47;;;;;;;-141.28;100.00;46248.13;5072860;28;20201;-75
2022/08/05 04:02:36;;;;;;;20.23;6.73;;;;;;;-141.28;100.00;46230.47;5088222;28;20278;-73
2022/08/05 04:05:04;;;;;;;25.67;6.73;;;;;;;-141.28;100.00;46218.72;5093187;28;20195;-75
2022/08/05 04:07:32;;;;;;;30.73;8.87;;;;;;;-141.28;100.00;46201.06;5092438;28;20192;-75
2022/08/05 04:10:01;;;;;;;25.23;6.93;;;;;;;-141.28;100.00;46199.13;5093178;28;20203;-76
2022/08/05 04:12:28;;;;;;;8.70;4.67;;;;;;;-141.28;100.00;46222.63;5092928;28;20626;-75
2022/08/05 04:14:56;;;;;;;9.13;5.30;;;;;;;-141.28;100.00;46250.09;5091887;28;20195;-76
2022/08/05 04:17:24;;;;;;;6.57;4.73;;;;;;;-141.28;100.00;46275.56;5092032;28;20584;-74
2022/08/05 04:19:51;;;;;;;5.03;4.50;;;;;;;-141.28;100.00;46293.22;5092344;28;20249;-75
2022/08/05 04:22:18;;;;;;;7.03;4.83;;;;;;;-141.28;100.00;46304.97;5092303;28;20203;-75
2022/08/05 04:24:46;;;;;;;10.50;4.90;;;;;;;-141.28;100.00;46304.97;5078690;28;20223;-75
2022/08/05 04:27:16;;;;;;;16.50;6.80;;;;;;;-141.28;100.00;46287.34;5091638;28;20200;-73
2022/08/05 04:29:44;;;;;;;18.77;7.40;;;;;;;-141.28;100.00;46254.00;5091785;28;20214;-75
2022/08/05 04:32:10;;;;;;;14.50;6.87;;;;;;;-141.28;100.00;46230.47;5066505;28;20192;-74
2022/08/05 04:34:38;;;;;;;15.10;6.80;;;;;;;-141.28;100.00;46246.16;5091681;28;20235;-76
2022/08/05 04:37:05;;;;;;;9.07;6.67;;;;;;;-141.28;100.00;46222.63;5092106;28;20204;-74
2022/08/05 04:39:33;;;;;;;23.80;6.80;;;;;;;-141.28;100.00;46228.53;5090322;28;20278;-75
2022/08/05 04:42:05;;;;;;;15.10;6.80;;;;;;;-141.28;100.00;46191.28;5073689;28;20198;-76
2022/08/05 04:44:35;;;;;;;14.87;7.40;;;;;;;-141.28;100.00;46179.50;5073115;28;20223;-75
2022/08/05 04:47:05;;;;;;;13.70;6.47;;;;;;;-141.28;100.00;46210.88;5072637;28;20579;-74
2022/08/05 04:49:34;;;;;;;21.43;7.20;;;;;;;-141.28;100.00;46203.03;5071966;28;20204;-75
2022/08/05 04:52:01;;;;;;;12.83;6.97;;;;;;;-141.28;100.00;46210.88;5073712;28;20196;-77
2022/08/05 04:54:28;;;;;;;15.87;7.20;;;;;;;-141.28;100.00;46210.88;5072563;28;20197;-75
2022/08/05 04:56:56;;;;;;;12.57;7.77;;;;;;;-141.28;100.00;46210.88;5072378;28;20207;-73
2022/08/05 04:59:24;;;;;;;15.27;7.17;;;;;;;-141.28;100.00;46183.44;5072500;28;20200;-75
2022/08/05 05:01:52;;;;;;;15.10;7.20;;;;;;;-141.28;100.00;46157.94;5072044;28;20199;-74
2022/08/05 05:04:22;;;;;;;20.30;8.33;;;;;;;-141.28;100.00;46165.78;5071904;28;20654;-77
2022/08/05 05:06:49;;;;;;;22.10;9.40;;;;;;;-141.28;100.00;46210.88;5073666;28;20211;-75
2022/08/05 05:09:16;;;;;;;12.83;7.17;;;;;;;-141.28;100.00;46199.13;5092040;28;20203;-76
2022/08/05 05:11:43;;;;;;;19.17;7.53;;;;;;;-141.28;100.00;46212.84;5091188;28;20192;-77
2022/08/05 05:14:11;;;;;;;18.40;8.17;;;;;;;-141.28;100.00;46199.13;5090384;28;20200;-75
2022/08/05 05:16:39;;;;;;;16.23;7.43;;;;;;;-141.28;100.00;46181.47;5091201;28;20200;-76
2022/08/05 05:19:08;;;;;;;24.73;9.00;;;;;;;-141.28;100.00;46175.59;5091498;28;20196;-76
2022/08/05 05:21:35;;;;;;;14.80;7.83;;;;;;;-141.28;100.00;46187.34;5090360;28;20195;-74
2022/08/05 05:24:07;;;;;;;19.50;8.20;;;;;;;-141.28;100.00;46157.94;5091049;28;20227;-75
2022/08/05 05:26:34;;;;;;;15.23;8.27;;;;;;;-141.28;100.00;46163.84;5086144;28;20296;-75
2022/08/05 05:29:02;;;;;;;22.73;8.60;;;;;;;-141.28;100.00;46169.72;5083341;28;20191;-75
2022/08/05 05:31:30;;;;;;;14.27;8.70;;;;;;;-141.28;100.00;46140.31;5091479;28;20577;-76
2022/08/05 05:33:59;;;;;;;45.37;8.97;;;;;;;-141.28;100.00;46106.97;5091147;28;20287;-75
2022/08/05 05:36:27;;;;;;;27.43;8.57;;;;;;;-141.28;100.00;46050.13;5090216;28;20599;-74
2022/08/05 05:38:56;;;;;;;18.40;7.93;;;;;;;-141.28;100.00;46026.59;5083354;28;20192;-74
2022/08/05 05:41:25;;;;;;;24.20;8.33;;;;;;;-141.28;100.00;46038.38;5073547;28;20279;-78
2022/08/05 05:43:52;;;;;;;18.63;7.63;;;;;;;-141.28;100.00;46007.00;5071529;28;20281;-75
2022/08/05 05:46:19;;;;;;;21.13;7.73;;;;;;;-141.28;100.00;45967.81;5071524;28;20200;-76
2022/08/05 05:48:49;;;;;;;15.57;7.13;;;;;;;-141.28;100.00;45948.19;5071572;28;20200;-74
2022/08/05 05:51:25;;;;;;;15.30;7.07;;;;;;;-141.28;100.00;45918.78;5072123;28;20200;-75
2022/08/05 05:53:56;;;;;;;29.80;8.83;;;;;;;-141.28;100.00;45869.78;5072782;28;20207;-75
2022/08/05 05:56:23;;;;;;;22.67;6.87;;;;;;;-141.28;100.00;45920.75;5072539;28;20203;-75
2022/08/05 05:58:51;;;;;;;19.30;8.00;;;;;;;-141.28;100.00;45912.91;5070712;28;20230;-74
2022/08/05 06:01:18;;;;;;;11.87;6.57;;;;;;;-141.28;100.00;45873.72;5072201;28;20581;-75
2022/08/05 06:03:46;;;;;;;15.10;6.90;;;;;;;-141.28;100.00;45877.63;5072114;28;20228;-75
2022/08/05 06:06:14;;;;;;;16.47;6.53;;;;;;;-141.28;100.00;45854.09;5071809;28;20244;-75
2022/08/05 06:08:43;;;;;;;16.90;6.90;;;;;;;-141.28;100.00;45838.44;5072918;28;20210;-76
2022/08/05 06:11:12;;;;;;;10.40;5.70;;;;;;;-141.28;100.00;45863.91;5071921;28;20200;-73
2022/08/05 06:13:40;;;;;;;10.30;5.40;;;;;;;-141.28;100.00;45865.88;5071703;28;20216;-75
2022/08/05 06:16:08;;;;;;;19.47;5.63;;;;;;;-141.28;100.00;45838.44;5071611;28;20246;-76
2022/08/05 06:18:36;;;;;;;12.17;5.93;;;;;;;-141.28;100.00;45830.59;5071605;28;20204;-75
2022/08/05 06:21:04;;;;;;;13.23;6.80;;;;;;;-141.28;100.00;45807.06;5070527;28;20204;-73
2022/08/05 06:23:33;;;;;;;11.97;6.87;;;;;;;-141.28;100.00;45807.06;5069910;28;20227;-77
2022/08/05 06:26:00;;;;;;;11.00;6.23;;;;;;;-141.28;100.00;45807.06;5081832;28;20216;-74
2022/08/05 06:28:29;;;;;;;10.37;7.07;;;;;;;-141.28;100.00;45803.16;5077845;28;20215;-75
2022/08/05 06:30:56;;;;;;;15.97;6.87;;;;;;;-141.28;100.00;45807.06;5090389;28;20204;-73
2022/08/05 06:33:23;;;;;;;11.47;6.20;;;;;;;-141.28;100.00;45795.31;5091103;28;20207;-75
2022/08/05 06:35:50;;;;;;;12.50;6.30;;;;;;;-141.28;100.00;45795.31;5090390;28;20210;-76
2022/08/05 06:38:18;;;;;;;12.60;5.70;;;;;;;-141.28;100.00;45793.34;5095527;28;20191;-75
2022/08/05 06:40:47;;;;;;;11.40;6.50;;;;;;;-141.28;100.00;45797.25;5082306;28;20579;-74
2022/08/05 06:43:14;;;;;;;15.30;5.57;;;;;;;-141.28;100.00;45787.47;5082408;28;20206;-75
2022/08/05 06:45:47;;;;;;;8.30;5.70;;;;;;;-141.28;100.00;45795.31;5089305;28;20197;-77
2022/08/05 06:48:17;;;;;;;10.93;5.70;;;;;;;-141.28;100.00;45773.75;5087810;28;20653;-77
2022/08/05 06:50:47;;;;;;;10.23;5.43;;;;;;;-141.28;100.00;45775.69;5088047;28;20207;-75
2022/08/05 06:53:14;;;;;;;9.37;6.00;;;;;;;-141.28;100.00;45801.19;5074672;28;20219;-75
2022/08/05 06:55:42;;;;;;;20.53;6.53;;;;;;;-141.28;100.00;45795.31;5079382;28;20210;-76
2022/08/05 06:58:09;;;;;;;17.30;5.50;;;;;;;-141.28;100.00;45777.66;5093488;28;20677;-77
2022/08/05 07:00:37;;;;;;;6.27;5.30;;;;;;;-141.28;100.00;45752.19;5095300;28;20223;-74
2022/08/05 07:03:06;;;;;;;8.03;5.80;;;;;;;-141.28;100.00;45763.94;5081434;28;20199;-75
2022/08/05 07:05:35;;;;;;;12.60;5.70;;;;;;;-141.28;100.00;45756.09;5094636;28;20227;-76
2022/08/05 07:08:04;;;;;;;8.47;5.13;;;;;;;-141.28;100.00;45795.31;5092885;28;20202;-76
2022/08/05 07:10:33;;;;;;;8.87;5.10;;;;;;;-141.28;100.00;45869.78;5074948;28;20741;-75
2022/08/05 07:18:34;;;;;;;8.43;5.17;;;;;;;-141.28;100.00;45830.59;5081430;28;20203;-75
2022/08/05 07:21:02;;;;;;;17.33;6.00;;;;;;;-141.28;100.00;45846.28;5081531;28;20188;-78
2022/08/05 07:23:29;;;;;;;13.67;6.40;;;;;;;-141.28;100.00;45814.91;5080611;28;20223;-76
2022/08/05 07:25:56;;;;;;;14.90;6.03;;;;;;;-141.28;100.00;45812.94;5078866;28;20232;-75
2022/08/05 07:28:25;;;;;;;8.50;6.00;;;;;;;-141.28;100.00;45830.59;5073926;28;20203;-75
2022/08/05 07:31:00;;;;;;;11.37;5.93;;;;;;;-141.28;100.00;45799.22;5067968;28;20240;-75
2022/08/05 07:33:27;;;;;;;12.77;6.10;;;;;;;-141.28;100.00;45840.38;5074504;28;20250;-78
2022/08/05 07:36:00;;;;;;;16.60;6.33;;;;;;;-141.28;100.00;45869.78;5074104;28;20204;-76
2022/08/05 07:38:29;;;;;;;14.87;6.13;;;;;;;-141.28;100.00;45850.19;5074654;28;20200;-77
2022/08/05 07:40:57;;;;;;;17.93;6.00;;;;;;;-141.28;100.00;45873.72;5074204;28;20206;-75
2022/08/05 07:43:27;;;;;;;6.73;5.13;;;;;;;-141.28;100.00;45905.06;5072130;28;20287;-75
2022/08/05 07:45:55;;;;;;;9.07;5.00;;;;;;;-141.28;100.00;45965.84;5073443;28;20208;-76
2022/08/05 07:48:23;;;;;;;14.17;5.63;;;;;;;-141.28;100.00;45958.00;5073343;28;20204;-75
2022/08/05 07:50:51;;;;;;;13.63;5.67;;;;;;;-141.28;100.00;45940.34;5072748;28;20651;-76
2022/08/05 07:53:20;;;;;;;10.43;5.10;;;;;;;-141.28;100.00;46001.13;5085100;28;20207;-76
2022/08/05 07:55:48;;;;;;;12.10;5.03;;;;;;;-141.28;100.00;46077.56;5093513;28;20216;-75
2022/08/05 07:58:15;;;;;;;8.87;4.83;;;;;;;-141.28;100.00;46212.84;5093298;28;20600;-75
2022/08/05 08:00:43;;;;;;;8.20;4.73;;;;;;;-141.28;100.00;46252.06;5093076;28;20195;-76
2022/08/05 08:03:10;;;;;;;9.23;5.13;;;;;;;-141.28;100.00;46483.38;5080571;28;20209;-76
2022/08/05 08:05:43;;;;;;;7.37;4.53;;;;;;;-141.28;100.00;46810.81;5091868;28;20565;-76
2022/08/05 08:08:10;;;;;;;19.20;5.20;;;;;;;-141.28;100.00;47140.22;5083752;28;20194;-76
2022/08/05 08:10:38;;;;;;;10.83;4.43;;;;;;;-141.28;100.00;47881.53;5074966;28;20202;-76
2022/08/05 08:13:06;;;;;;;7.60;4.63;;;;;;;-141.28;100.00;48915.34;5092482;28;20195;-75
2022/08/05 08:15:35;;;;;;;12.60;4.97;;;;;;;-141.28;100.00;49203.75;5079758;28;20197;-75
2022/08/05 08:18:03;;;;;;;7.83;4.43;;;;;;;-141.28;100.00;49109.59;5092543;28;20206;-74
2022/08/05 08:20:39;;;;;;;6.60;4.30;;;;;;;-141.28;100.00;48952.63;5080012;28;20588;-75
2022/08/05 08:23:08;;;;;;;8.40;4.20;;;;;;;-141.28;100.00;48934.97;5073218;28;20208;-75
2022/08/05 08:25:38;;;;;;;10.17;4.23;;;;;;;-141.28;100.00;48862.38;5072171;28;20245;-76
2022/08/05 08:28:08;;;;;;;5.40;4.00;;;;;;;-141.28;100.00;48803.50;5073019;28;20658;-76
2022/08/05 08:30:35;;;;;;;8.17;4.33;;;;;;;-141.28;100.00;48783.91;5072949;28;20672;-74
2022/08/05 08:33:07;;;;;;;6.20;4.83;;;;;;;-141.28;100.00;48779.97;5072759;28;20200;-75
2022/08/05 08:35:36;;;;;;;4.83;4.37;;;;;;;-141.28;100.00;48779.97;5072951;28;20624;-75
2022/08/05 08:38:07;;;;;;;5.77;4.50;;;;;;;-141.28;100.00;48776.03;5086216;28;20647;-75
2022/08/05 08:40:35;;;;;;;5.90;4.57;;;;;;;-141.28;100.00;48746.63;5072091;28;20197;-74
2022/08/05 08:43:04;;;;;;;6.63;4.13;;;;;;;-141.28;100.00;48756.44;5071963;28;20203;-77
2022/08/05 08:45:32;;;;;;;5.60;4.60;;;;;;;-141.28;100.00;48730.91;5078663;28;20235;-75
2022/08/05 08:48:04;;;;;;;5.30;4.53;;;;;;;-141.28;100.00;48736.81;5072049;28;20196;-75
2022/08/05 08:50:34;;;;;;;5.73;4.60;;;;;;;-141.28;100.00;48756.44;5072133;28;20199;-75
2022/08/05 08:53:04;;;;;;;6.23;3.97;;;;;;;-141.28;100.00;48779.97;5085056;28;20200;-75
2022/08/05 08:55:48;;;;;;;7.10;4.30;;;;;;;-141.28;100.00;48748.56;5071605;28;20681;-79
2022/08/05 08:58:17;;;;;;;6.33;4.37;;;;;;;-141.28;100.00;49243.00;5071250;28;20203;-77
2022/08/05 09:00:45;;;;;;;4.50;3.50;;;;;;;-141.28;97.92;48734.84;5071332;28;20195;-77
2022/08/05 09:03:15;;;;;;;11.67;4.03;;;;;;;-141.28;97.21;48740.72;5076002;28;20713;-76
2022/08/05 09:05:42;;;;;;;6.47;3.30;;;;;;;-141.28;83.73;48701.50;5079361;28;20277;-76
2022/08/05 09:08:10;;;;;;;14.63;4.30;;;;;;;-141.28;73.50;48697.56;5071647;28;20280;-75
2022/08/05 09:10:43;;;;;;;9.30;3.43;;;;;;;-141.28;75.49;48736.81;5071429;28;20219;-75
2022/08/05 09:13:13;;;;;;;4.73;4.10;;;;;;;-141.28;86.29;48732.88;5076855;28;20203;-75
2022/08/05 09:15:43;;;;;;;4.53;3.40;;;;;;;-141.28;75.95;48685.81;5079290;28;20205;-77
2022/08/05 09:18:11;;;;;;;7.13;3.50;;;;;;;-141.28;69.66;48654.41;5084980;28;20251;-74
2022/08/05 09:20:40;;;;;;;7.27;3.67;;;;;;;-141.28;70.55;48636.75;5071031;28;20197;-77
2022/08/05 09:23:16;;;;;;;5.70;2.83;;;;;;;-141.28;62.05;48642.63;5068274;28;20236;-76
2022/08/05 09:25:46;;;;;;;10.20;2.57;;;;;;;-141.28;61.68;48642.63;5072074;28;20633;-76
2022/08/05 09:28:23;;;;;;;4.27;2.43;;;;;;;-141.28;59.55;48630.88;5073541;28;20633;-76
2022/08/05 09:31:03;;;;;;;5.27;2.80;;;;;;;-141.28;59.50;48607.31;5083619;28;20206;-76
2022/08/05 09:33:31;;;;;;;3.10;2.80;;;;;;;-141.28;59.18;48609.28;5036968;28;1579917;-77
2022/08/05 09:36:00;;;;;;;5.30;3.20;;;;;;;-141.28;55.27;48611.25;5081567;28;20208;-74
2022/08/05 09:38:28;;;;;;;3.20;2.90;;;;;;;-141.28;56.27;48603.41;5071652;28;20207;-75
2022/08/05 09:41:03;;;;;;;6.10;2.80;;;;;;;-141.28;54.81;48607.31;5071312;28;20203;-77
2022/08/05 09:43:32;;;;;;;3.90;2.83;;;;;;;-141.28;52.46;48581.81;5072258;28;20210;-75
2022/08/05 09:46:01;;;;;;;3.73;2.60;;;;;;;-141.28;53.33;48587.72;5075335;28;20220;-75
2022/08/05 09:48:31;;;;;;;6.50;3.07;;;;;;;-141.28;51.70;48575.94;5071363;28;20197;-75
2022/08/05 09:51:00;;;;;;;4.17;3.30;;;;;;;-141.28;52.00;48575.94;5082147;28;20207;-73
2022/08/05 09:53:29;;;;;;;3.70;2.73;;;;;;;-141.28;52.42;48583.78;5086980;28;20197;-75
2022/08/05 09:55:58;;;;;;;3.70;3.13;;;;;;;-141.28;54.26;48548.47;5071386;28;20197;-76
2022/08/05 09:58:28;;;;;;;5.60;3.33;;;;;;;-141.28;53.03;48599.47;5071389;28;20696;-75
2022/08/05 10:00:58;;;;;;;7.13;3.47;;;;;;;-141.28;53.40;48579.88;5081350;28;20204;-75
2022/08/05 10:03:29;;;;;;;7.20;3.60;;;;;;;-141.28;52.30;48593.59;5074344;28;20200;-76
2022/08/05 10:06:05;;;;;;;8.83;3.87;;;;;;;-141.28;53.82;48607.31;5082551;28;20245;-75
2022/08/05 10:08:34;;;;;;;7.40;3.37;;;;;;;-141.28;56.95;48642.63;5090596;28;20202;-76
2022/08/05 10:11:05;;;;;;;6.00;3.50;;;;;;;-141.28;59.49;48648.53;5093065;28;20202;-75
2022/08/05 10:13:36;;;;;;;5.13;3.90;;;;;;;-141.28;58.80;48615.19;5068470;28;20198;-75
2022/08/05 10:16:06;;;;;;;4.80;3.83;;;;;;;-141.28;59.17;48552.41;5094442;28;20243;-75
2022/08/05 10:18:36;;;;;;;16.30;4.10;;;;;;;-141.28;57.03;48593.59;5095321;28;20200;-76
2022/08/05 10:21:05;;;;;;;5.73;3.80;;;;;;;-141.28;56.17;48607.31;5095873;28;20624;-75
2022/08/05 10:23:33;;;;;;;5.67;3.80;;;;;;;-141.28;54.17;48560.25;5095408;28;20717;-76
2022/08/05 10:26:02;;;;;;;7.33;4.30;;;;;;;-141.28;52.78;48552.41;5094869;28;20225;-75
2022/08/05 10:28:29;;;;;;;5.53;3.93;;;;;;;-141.28;51.70;48560.25;5095451;28;20221;-75
2022/08/05 10:30:57;;;;;;;6.20;4.23;;;;;;;-141.28;50.14;48630.88;5094852;28;20321;-75
2022/08/05 10:33:27;;;;;;;6.37;3.70;;;;;;;-141.28;50.04;48560.25;5087806;28;20233;-76
2022/08/05 10:36:02;;;;;;;5.80;3.93;;;;;;;-141.28;55.42;48573.97;5073934;28;20199;-76
2022/08/05 10:38:32;;;;;;;5.67;3.70;;;;;;;-141.28;55.15;48572.00;5075390;28;20196;-76
2022/08/05 10:41:13;;;;;;;7.43;3.67;;;;;;;-141.28;52.57;48564.16;5075192;28;20197;-75
2022/08/05 10:43:49;;;;;;;4.30;3.63;;;;;;;-141.28;51.18;48552.41;5075124;28;20551;-76
2022/08/05 10:46:17;;;;;;;11.23;3.77;;;;;;;-141.28;52.55;48532.78;5070049;28;20229;-75
2022/08/05 10:48:45;;;;;;;6.03;3.43;;;;;;;-141.28;53.88;48517.09;5094423;28;20285;-74
2022/08/05 10:51:16;;;;;;;10.33;4.13;;;;;;;-141.28;52.47;48513.16;5095084;28;20628;-74
2022/08/05 10:53:53;;;;;;;7.60;3.43;;;;;;;-141.28;52.10;48521.00;5092877;28;20201;-74
2022/08/05 10:56:23;;;;;;;6.37;3.70;;;;;;;-141.28;48.38;48505.31;5084014;28;20617;-74
2022/08/05 10:59:06;;;;;;;5.17;3.70;;;;;;;-141.28;48.89;48479.81;5091962;28;20302;-75
2022/08/05 11:01:35;;;;;;;4.43;3.80;;;;;;;-141.28;50.10;48505.31;5092927;28;20221;-75
2022/08/05 11:04:13;;;;;;;9.20;4.10;;;;;;;-141.28;49.04;48503.34;5068932;28;20652;-75
2022/08/05 11:07:07;;;;;;;7.47;3.47;;;;;;;-141.28;47.82;48524.94;5089253;28;20235;-76
2022/08/05 11:09:44;;;;;;;7.13;3.60;;;;;;;-141.28;50.00;48515.13;5074628;28;20196;-75
2022/08/05 11:12:44;;;;;;;6.83;3.67;;;;;;;-141.28;47.22;48509.25;5074349;28;20214;-75
2022/08/05 11:15:26;;;;;;;5.40;3.93;;;;;;;-141.28;48.37;48489.63;5064665;28;20662;-75
2022/08/05 11:17:54;;;;;;;5.23;3.70;;;;;;;-141.28;47.40;48524.94;5074297;28;20581;-76
2022/08/05 11:20:37;;;;;;;5.00;4.00;;;;;;;-141.28;51.83;48548.47;5074719;28;20615;-76
2022/08/05 11:23:44;;;;;;;4.30;3.90;;;;;;;-141.28;50.42;48540.63;5062655;28;20203;-75
2022/08/05 11:26:22;;;;;;;8.20;3.93;;;;;;;-141.28;49.31;48550.44;5076421;28;20228;-76